Time;durP1;ratioP1;P1;durP2;ratioP2;P2;SDS_P1;SDS_P2;PMS_P1;PMS_P2;Temp;Humidity;BMP_temperature;BMP_pressure;BME280_temperature;BME280_humidity;BME280_pressure;Samples;Min_cycle;Max_cycle;Signal;HPM_P1;HPM_P2
2021/10/26 00:02:33;;;;;;;20.00;13.70;;;;;;;4.62;72.13;101089.66;230259;1193;139156;-74
2021/10/26 00:07:34;;;;;;;20.40;13.30;;;;;;;4.67;71.76;101087.09;230358;1193;139325;-73
2021/10/26 00:12:36;;;;;;;17.60;12.80;;;;;;;4.71;71.55;101087.91;229991;1193;138809;-69
2021/10/26 00:17:38;;;;;;;16.80;12.60;;;;;;;4.74;71.00;101080.02;229843;1196;138622;-73
2021/10/26 00:22:39;;;;;;;16.20;11.20;;;;;;;4.75;70.83;101076.61;230311;1193;202302;-74
2021/10/26 00:27:41;;;;;;;14.40;11.30;;;;;;;4.80;70.24;101079.23;230257;1193;138776;-75
2021/10/26 00:32:43;;;;;;;17.30;11.60;;;;;;;4.84;69.83;101077.27;230698;1194;138171;-73
2021/10/26 00:37:45;;;;;;;16.00;12.60;;;;;;;4.90;69.41;101078.25;230024;1197;138230;-74
2021/10/26 00:42:46;;;;;;;17.00;12.10;;;;;;;4.94;69.15;101079.44;230710;1193;137779;-74
2021/10/26 00:47:48;;;;;;;17.60;11.70;;;;;;;4.96;68.92;101073.52;230708;1193;138178;-75
2021/10/26 00:52:49;;;;;;;14.60;10.90;;;;;;;5.02;68.70;101082.56;230691;1193;138214;-75
2021/10/26 00:57:51;;;;;;;17.70;12.10;;;;;;;5.12;68.21;101073.66;230799;1194;140033;-76
2021/10/26 01:02:53;;;;;;;14.40;10.00;;;;;;;5.13;68.16;101078.84;230664;1194;139074;-74
2021/10/26 01:07:55;;;;;;;19.70;12.30;;;;;;;5.14;67.65;101073.00;230372;1193;138449;-75
2021/10/26 01:12:57;;;;;;;16.50;12.00;;;;;;;5.12;67.96;101069.30;230485;1196;138400;-74
2021/10/26 01:17:59;;;;;;;20.10;12.20;;;;;;;5.06;68.22;101066.91;230727;1195;138228;-74
2021/10/26 01:23:00;;;;;;;18.40;11.10;;;;;;;5.00;68.40;101059.80;230893;1193;138272;-75
2021/10/26 01:28:02;;;;;;;17.50;11.10;;;;;;;5.01;68.08;101060.39;230684;1193;137785;-74
2021/10/26 01:33:05;;;;;;;17.10;10.80;;;;;;;4.98;68.42;101062.20;230408;1194;139153;-75
2021/10/26 01:38:07;;;;;;;15.30;11.30;;;;;;;5.02;67.98;101061.07;229886;1180;139811;-74
2021/10/26 01:43:09;;;;;;;16.20;10.90;;;;;;;4.99;68.23;101056.70;230661;1193;138384;-74
2021/10/26 01:48:11;;;;;;;21.40;11.50;;;;;;;4.95;68.40;101052.97;229689;1194;137908;-75
2021/10/26 01:53:12;;;;;;;17.10;11.70;;;;;;;4.88;68.65;101054.67;230004;1194;137847;-75
2021/10/26 01:58:16;;;;;;;16.10;11.20;;;;;;;4.82;68.68;101058.52;230683;1195;138394;-77
2021/10/26 02:03:17;;;;;;;15.20;10.70;;;;;;;4.78;68.96;101055.81;230705;1195;139078;-77
2021/10/26 02:08:19;;;;;;;16.40;10.60;;;;;;;4.74;69.24;101050.99;230592;1193;138238;-74
2021/10/26 02:13:21;;;;;;;13.70;10.00;;;;;;;4.81;68.78;101059.63;230724;1196;138842;-73
2021/10/26 02:18:22;;;;;;;17.20;12.00;;;;;;;4.86;68.60;101060.86;230368;1181;138514;-75
2021/10/26 02:23:25;;;;;;;18.70;11.60;;;;;;;4.85;68.56;101055.88;230410;1184;138433;-74
2021/10/26 02:28:26;;;;;;;14.50;10.50;;;;;;;4.88;68.80;101050.31;230096;1194;138993;-72
2021/10/26 02:33:28;;;;;;;19.80;11.60;;;;;;;4.83;68.64;101042.90;230598;1186;138945;-73
2021/10/26 02:38:30;;;;;;;16.10;10.10;;;;;;;4.79;68.59;101046.69;229860;1193;138463;-73
2021/10/26 02:43:32;;;;;;;19.40;10.20;;;;;;;4.73;69.02;101045.16;230089;1193;138615;-73
2021/10/26 02:48:33;;;;;;;16.40;10.40;;;;;;;4.75;68.79;101043.48;230936;1193;138873;-72
2021/10/26 02:53:35;;;;;;;17.50;10.80;;;;;;;4.82;68.56;101034.77;230463;1193;139452;-75
2021/10/26 02:58:37;;;;;;;13.70;10.00;;;;;;;4.79;68.86;101036.19;230696;1193;138626;-74
2021/10/26 03:03:39;;;;;;;16.60;11.30;;;;;;;4.75;68.76;101037.53;230847;1199;137786;-72
2021/10/26 03:08:41;;;;;;;14.00;10.60;;;;;;;4.67;68.98;101044.63;230374;1193;138530;-74
2021/10/26 03:13:42;;;;;;;14.00;9.30;;;;;;;4.61;69.38;101042.59;230027;1193;139192;-73
2021/10/26 03:18:44;;;;;;;15.30;10.60;;;;;;;4.56;69.56;101040.13;229732;1193;137652;-73
2021/10/26 03:23:45;;;;;;;14.80;9.20;;;;;;;4.60;69.34;101035.88;229923;1194;138964;-73
2021/10/26 03:28:47;;;;;;;12.80;9.20;;;;;;;4.61;69.70;101030.35;230796;1193;138302;-74
2021/10/26 03:33:49;;;;;;;13.70;9.60;;;;;;;4.71;69.13;101036.73;230174;1194;138182;-71
2021/10/26 03:38:51;;;;;;;11.40;9.10;;;;;;;4.73;69.16;101042.57;229569;1195;139082;-71
2021/10/26 03:43:53;;;;;;;14.90;9.50;;;;;;;4.74;69.13;101042.66;229701;1193;137852;-71
2021/10/26 03:48:55;;;;;;;13.50;9.10;;;;;;;4.65;69.56;101046.02;229886;1193;138021;-72
2021/10/26 03:53:57;;;;;;;12.90;10.00;;;;;;;4.62;70.06;101049.54;229835;1193;139106;-76
2021/10/26 03:59:01;;;;;;;13.30;9.50;;;;;;;4.58;70.00;101044.54;230324;1193;137798;-74
2021/10/26 04:04:06;;;;;;;14.90;9.60;;;;;;;4.54;70.46;101042.36;230174;1193;138404;-73
2021/10/26 04:09:10;;;;;;;14.30;9.60;;;;;;;4.56;70.33;101036.96;229803;1195;139064;-75
2021/10/26 04:14:11;;;;;;;13.70;9.60;;;;;;;4.62;70.23;101033.08;229773;1194;138809;-74
2021/10/26 04:19:14;;;;;;;15.40;11.20;;;;;;;4.63;70.40;101027.63;229891;1193;137965;-75
2021/10/26 04:24:15;;;;;;;12.80;10.50;;;;;;;4.62;70.72;101024.92;230305;1193;138068;-74
2021/10/26 04:29:17;;;;;;;13.80;10.50;;;;;;;4.61;70.66;101020.94;229713;1193;138002;-74
2021/10/26 04:34:18;;;;;;;16.30;10.40;;;;;;;4.61;70.74;101020.42;229882;1193;138393;-74
2021/10/26 04:39:20;;;;;;;17.20;10.20;;;;;;;4.58;71.02;101018.69;230223;1193;137899;-72
2021/10/26 04:44:21;;;;;;;15.30;9.90;;;;;;;4.56;71.37;101012.04;230729;1193;138505;-73
2021/10/26 04:49:23;;;;;;;16.10;11.20;;;;;;;4.61;71.28;101014.14;230527;1193;141530;-77
2021/10/26 04:54:25;;;;;;;15.80;11.60;;;;;;;4.61;71.37;101008.71;230432;1194;138668;-73
2021/10/26 04:59:26;;;;;;;18.50;12.60;;;;;;;4.58;71.53;101003.69;230654;1192;138480;-75
2021/10/26 05:04:28;;;;;;;17.20;10.70;;;;;;;4.53;71.76;101008.19;230804;1193;137816;-75
2021/10/26 05:09:30;;;;;;;16.50;11.40;;;;;;;4.46;72.39;101006.22;230819;1193;137741;-75
2021/10/26 05:14:31;;;;;;;16.40;11.10;;;;;;;4.48;72.42;101008.15;230957;1193;137996;-77
2021/10/26 05:19:36;;;;;;;14.20;10.90;;;;;;;4.54;72.36;101007.23;230732;1193;138304;-74
2021/10/26 05:24:37;;;;;;;13.90;11.90;;;;;;;4.56;72.31;101010.29;230568;1193;138440;-76
2021/10/26 05:29:42;;;;;;;12.30;9.90;;;;;;;4.51;72.54;101008.55;230726;1193;137832;-74
2021/10/26 05:34:44;;;;;;;14.30;10.00;;;;;;;4.50;72.76;101011.70;230310;1193;137666;-76
2021/10/26 05:39:47;;;;;;;11.70;9.90;;;;;;;4.45;72.90;101021.63;230591;1193;138261;-77
2021/10/26 05:44:49;;;;;;;15.10;10.50;;;;;;;4.43;72.98;101017.42;230686;1194;138395;-75
2021/10/26 05:49:51;;;;;;;12.80;10.10;;;;;;;4.43;73.34;101026.30;230657;1193;138798;-77
2021/10/26 05:54:52;;;;;;;15.40;10.20;;;;;;;4.47;73.21;101020.98;231065;1177;139134;-77
2021/10/26 05:59:54;;;;;;;13.00;10.00;;;;;;;4.55;72.88;101027.65;231055;1193;139558;-73
2021/10/26 06:04:55;;;;;;;18.10;10.00;;;;;;;4.54;73.10;101029.10;230660;1196;139026;-75
2021/10/26 06:09:57;;;;;;;15.10;9.30;;;;;;;4.53;73.16;101035.98;230386;1193;138277;-75
2021/10/26 06:14:59;;;;;;;12.40;8.70;;;;;;;4.52;73.19;101040.73;231223;1193;138794;-73
2021/10/26 06:20:00;;;;;;;12.20;9.50;;;;;;;4.53;73.24;101041.20;230668;1193;138489;-74
2021/10/26 06:25:03;;;;;;;12.70;9.00;;;;;;;4.55;73.50;101042.64;230267;1199;138365;-75
2021/10/26 06:30:05;;;;;;;11.20;8.20;;;;;;;4.60;73.28;101043.86;230654;1193;138955;-75
2021/10/26 06:35:11;;;;;;;13.30;8.80;;;;;;;4.68;73.12;101050.17;229991;1193;138267;-74
2021/10/26 06:40:15;;;;;;;11.80;9.40;;;;;;;4.72;73.09;101051.33;230229;1193;138220;-73
2021/10/26 06:45:17;;;;;;;13.40;11.20;;;;;;;4.74;72.96;101061.34;231275;1193;137740;-74
2021/10/26 06:50:19;;;;;;;25.10;19.20;;;;;;;4.79;73.07;101071.34;231576;1193;138285;-75
2021/10/26 06:55:21;;;;;;;16.20;10.80;;;;;;;4.84;73.16;101071.15;230919;1190;138316;-75
2021/10/26 07:00:24;;;;;;;14.50;10.30;;;;;;;4.97;72.93;101070.09;230344;1193;139088;-74
2021/10/26 07:05:27;;;;;;;16.30;11.40;;;;;;;5.16;72.09;101067.64;230008;1193;138767;-75
2021/10/26 07:10:28;;;;;;;15.00;10.80;;;;;;;5.31;71.78;101060.70;230834;1194;138314;-74
2021/10/26 07:15:32;;;;;;;15.40;12.70;;;;;;;5.40;71.76;101059.23;230789;1193;137784;-76
2021/10/26 07:20:33;;;;;;;15.30;11.30;;;;;;;5.47;71.40;101063.64;230748;1193;138558;-78
2021/10/26 07:25:35;;;;;;;13.70;9.60;;;;;;;5.58;71.35;101067.08;230431;1177;138542;-78
2021/10/26 07:30:39;;;;;;;13.60;10.20;;;;;;;5.80;70.91;101067.33;231059;1193;138915;-76
2021/10/26 07:35:43;;;;;;;12.70;8.70;;;;;;;6.02;70.43;101066.55;230752;1193;138510;-76
2021/10/26 07:40:44;;;;;;;12.10;10.50;;;;;;;6.23;69.81;101058.92;230749;1193;138570;-73
2021/10/26 07:45:46;;;;;;;13.10;11.00;;;;;;;6.44;69.18;101050.95;230414;1193;138505;-77
2021/10/26 07:50:48;;;;;;;16.00;11.30;;;;;;;6.63;68.90;101049.95;230729;1193;139442;-74
2021/10/26 07:55:51;;;;;;;10.30;9.20;;;;;;;6.82;68.51;101047.66;230796;1193;138119;-72
2021/10/26 08:00:54;;;;;;;11.70;8.20;;;;;;;7.01;67.77;101043.13;230574;1193;137991;-73
2021/10/26 08:05:56;;;;;;;12.70;9.40;;;;;;;7.26;66.92;101043.85;229837;1193;138568;-73
2021/10/26 08:10:58;;;;;;;11.10;8.40;;;;;;;7.50;66.39;101046.59;230533;1193;138281;-74
2021/10/26 08:15:59;;;;;;;9.20;7.60;;;;;;;7.74;65.95;101040.73;230860;1193;137800;-74
2021/10/26 08:21:01;;;;;;;10.20;8.70;;;;;;;7.85;65.56;101043.27;230819;1193;137852;-74
2021/10/26 08:26:03;;;;;;;13.10;9.40;;;;;;;8.04;64.89;101042.77;229850;1196;138062;-75
2021/10/26 08:31:16;;;;;;;9.10;7.20;;;;;;;8.17;64.92;101041.79;230815;1193;137994;-73
2021/10/26 08:36:18;;;;;;;9.00;7.20;;;;;;;8.28;64.94;101034.91;230686;1193;138374;-78
2021/10/26 08:41:23;;;;;;;8.70;7.50;;;;;;;8.47;63.39;101032.55;230227;1193;138058;-77
2021/10/26 08:46:26;;;;;;;10.40;8.10;;;;;;;8.55;63.65;101033.96;231120;1193;138826;-74
2021/10/26 08:51:27;;;;;;;12.40;8.70;;;;;;;8.61;63.48;101023.33;230792;1193;139099;-74
2021/10/26 08:56:29;;;;;;;9.20;8.00;;;;;;;8.71;62.76;101027.79;230867;1193;138506;-75
2021/10/26 09:01:31;;;;;;;10.70;7.90;;;;;;;8.75;62.61;101035.23;230818;1177;138281;-76
2021/10/26 09:06:42;;;;;;;8.00;6.90;;;;;;;8.82;62.66;101025.79;230866;1193;138371;-77
2021/10/26 09:17:15;;;;;;;10.10;7.70;;;;;;;9.04;61.71;101026.11;229873;1200;138961;-76
2021/10/26 09:22:17;;;;;;;7.70;6.60;;;;;;;9.21;61.14;101020.51;230867;1193;139402;-76
2021/10/26 09:27:20;;;;;;;9.00;7.20;;;;;;;9.29;60.76;101019.43;230762;1187;138495;-77
2021/10/26 09:32:44;;;;;;;7.70;6.70;;;;;;;9.41;60.03;101019.46;231120;1193;138127;-75
2021/10/26 09:37:52;;;;;;;10.90;8.10;;;;;;;9.57;59.79;101026.03;230265;1193;137722;-76
2021/10/26 09:42:53;;;;;;;8.90;6.30;;;;;;;9.59;60.02;101023.38;231060;1193;138318;-73
2021/10/26 09:48:14;;;;;;;15.00;12.60;;;;;;;9.65;60.23;101024.62;230516;1193;137885;-73
2021/10/26 09:53:17;;;;;;;11.70;8.20;;;;;;;9.68;60.14;101023.86;230038;1193;138965;-75
2021/10/26 09:58:21;;;;;;;12.90;7.50;;;;;;;9.73;59.39;101020.25;231047;1193;138407;-74
2021/10/26 10:03:25;;;;;;;10.10;7.90;;;;;;;9.79;59.01;101022.86;231015;1193;137822;-74
2021/10/26 10:08:34;;;;;;;9.20;7.30;;;;;;;9.91;59.19;101014.98;230544;1177;139899;-73
2021/10/26 10:13:42;;;;;;;11.60;7.60;;;;;;;10.06;58.53;101005.06;230720;1193;138032;-75
2021/10/26 10:18:45;;;;;;;8.30;6.90;;;;;;;10.20;57.80;101000.30;230785;1193;138267;-73
2021/10/26 10:23:48;;;;;;;10.90;8.70;;;;;;;10.34;57.70;100997.11;230208;1193;138216;-73
2021/10/26 10:28:51;;;;;;;9.80;7.70;;;;;;;10.45;57.51;100990.67;230361;1195;138198;-74
2021/10/26 10:33:54;;;;;;;7.60;6.80;;;;;;;10.45;57.16;100986.50;230707;1193;138098;-74
2021/10/26 10:39:05;;;;;;;11.40;7.50;;;;;;;10.44;56.45;100989.70;230706;1193;138294;-78
2021/10/26 10:44:33;;;;;;;11.40;7.80;;;;;;;10.47;56.67;100987.67;230769;1193;138386;-74
2021/10/26 10:49:34;;;;;;;8.10;7.20;;;;;;;10.54;57.21;100992.22;229923;1194;138110;-75
2021/10/26 10:54:36;;;;;;;8.40;7.00;;;;;;;10.67;57.11;100985.55;230768;1187;138303;-74
2021/10/26 10:59:45;;;;;;;12.80;7.10;;;;;;;10.90;56.50;100968.11;230769;1193;138321;-77
2021/10/26 11:04:47;;;;;;;12.10;7.90;;;;;;;11.10;56.23;100966.11;230748;1193;139155;-75
2021/10/26 11:09:51;;;;;;;9.90;7.50;;;;;;;11.73;54.51;100962.46;230645;1195;138266;-77
2021/10/26 11:14:55;;;;;;;9.90;8.00;;;;;;;12.97;49.81;100959.47;230591;1193;138217;-74
2021/10/26 11:19:57;;;;;;;8.10;7.20;;;;;;;12.90;49.81;100956.25;230754;1193;138588;-75
2021/10/26 11:25:27;;;;;;;8.70;7.30;;;;;;;12.44;51.38;100953.15;230940;1193;138098;-76
2021/10/26 11:30:29;;;;;;;8.80;6.70;;;;;;;11.67;53.15;100948.70;230663;1193;137809;-74
2021/10/26 11:35:47;;;;;;;7.20;6.10;;;;;;;12.78;51.40;100944.20;230588;1193;137992;-74
2021/10/26 11:40:51;;;;;;;10.90;7.50;;;;;;;12.52;51.14;100941.20;230846;1193;138497;-76
2021/10/26 11:46:00;;;;;;;8.90;7.00;;;;;;;11.94;52.64;100936.98;230918;1193;137911;-76
2021/10/26 11:51:38;;;;;;;9.90;7.90;;;;;;;11.95;52.59;100934.20;230829;1193;138366;-76
2021/10/26 11:56:57;;;;;;;9.70;7.00;;;;;;;11.82;53.05;100939.34;230928;1193;138838;-76
2021/10/26 12:02:05;;;;;;;10.00;8.10;;;;;;;11.77;54.04;100935.23;230856;1193;138286;-76
2021/10/26 12:07:12;;;;;;;8.90;6.80;;;;;;;11.59;54.17;100925.36;230890;1193;138757;-74
2021/10/26 12:12:24;;;;;;;7.70;5.90;;;;;;;11.38;54.83;100932.99;230763;1193;138373;-75
2021/10/26 12:17:29;;;;;;;7.20;6.40;;;;;;;11.36;54.97;100921.16;231329;1193;138495;-76
2021/10/26 12:22:56;;;;;;;10.40;7.00;;;;;;;11.58;54.48;100915.17;231237;1193;137870;-75
2021/10/26 12:28:06;;;;;;;13.10;8.00;;;;;;;11.66;54.38;100916.52;234323;1193;138235;-76
2021/10/26 12:33:08;;;;;;;8.10;7.20;;;;;;;12.05;53.45;100917.58;236120;1194;137690;-72
2021/10/26 12:38:21;;;;;;;8.70;6.80;;;;;;;12.05;53.27;100910.86;236140;1193;137769;-75
2021/10/26 12:43:27;;;;;;;9.70;7.30;;;;;;;12.01;53.76;100908.54;233665;1193;138140;-75
2021/10/26 12:48:36;;;;;;;10.90;8.20;;;;;;;12.26;53.47;100905.06;234470;1193;137919;-76
2021/10/26 12:53:41;;;;;;;11.60;9.00;;;;;;;11.69;54.51;100910.99;236652;1194;137711;-73
2021/10/26 12:58:48;;;;;;;12.10;8.90;;;;;;;11.38;55.56;100907.87;236891;1193;137337;-76
2021/10/26 13:03:54;;;;;;;8.80;7.90;;;;;;;11.37;56.10;100901.66;235882;1193;137944;-74
2021/10/26 13:08:56;;;;;;;8.60;7.70;;;;;;;11.37;55.94;100904.64;234436;1194;137782;-74
2021/10/26 13:14:03;;;;;;;12.40;8.60;;;;;;;11.37;55.77;100902.30;232581;1195;138423;-77
2021/10/26 13:19:24;;;;;;;13.10;8.10;;;;;;;11.21;56.28;100898.27;231860;1193;138235;-73
2021/10/26 13:24:27;;;;;;;9.50;8.10;;;;;;;11.15;57.01;100898.59;231678;1193;138225;-74
2021/10/26 13:29:43;;;;;;;9.40;8.40;;;;;;;11.18;56.90;100897.95;231551;1193;137802;-75
2021/10/26 13:34:51;;;;;;;12.00;8.70;;;;;;;11.19;56.99;100898.25;232623;1193;138190;-77
2021/10/26 13:39:53;;;;;;;11.00;8.20;;;;;;;11.21;57.68;100897.84;231336;1193;138390;-74
2021/10/26 13:44:55;;;;;;;11.40;8.60;;;;;;;11.25;57.46;100888.50;231479;1193;138793;-74
2021/10/26 13:49:56;;;;;;;9.80;8.60;;;;;;;11.24;57.70;100902.88;231034;1193;138775;-75
2021/10/26 13:54:58;;;;;;;11.00;9.20;;;;;;;11.21;57.85;100904.20;231061;1194;138772;-77
2021/10/26 14:00:07;;;;;;;9.80;8.50;;;;;;;11.18;58.28;100900.31;230932;1193;138403;-75
2021/10/26 14:05:11;;;;;;;10.90;9.10;;;;;;;11.18;59.00;100896.08;230969;1193;138471;-76
2021/10/26 14:10:13;;;;;;;10.40;9.30;;;;;;;11.09;59.62;100902.38;230750;1193;138420;-75
2021/10/26 14:15:16;;;;;;;12.10;9.50;;;;;;;11.38;58.82;100903.46;231091;1193;138169;-74
2021/10/26 14:20:22;;;;;;;14.10;9.70;;;;;;;11.51;57.69;100909.81;235011;1193;136969;-75
2021/10/26 14:25:24;;;;;;;11.60;9.90;;;;;;;11.50;57.93;100915.75;235907;1193;138316;-75
2021/10/26 14:30:25;;;;;;;11.60;9.00;;;;;;;11.36;58.63;100921.83;235613;1193;138022;-76
2021/10/26 14:35:30;;;;;;;10.90;9.80;;;;;;;11.23;58.84;100922.21;233576;1193;138728;-76
2021/10/26 14:40:46;;;;;;;9.90;8.90;;;;;;;11.07;59.70;100920.53;230445;1193;138174;-74
2021/10/26 14:56:29;;;;;;;9.70;8.70;;;;;;;10.88;60.40;100919.81;230885;1193;138851;-76
2021/10/26 15:01:34;;;;;;;13.30;10.40;;;;;;;10.81;60.46;100925.20;231064;1193;137808;-74
2021/10/26 15:06:38;;;;;;;13.20;9.90;;;;;;;10.72;60.99;100926.04;231422;1193;138533;-75
2021/10/26 15:11:41;;;;;;;11.60;10.40;;;;;;;10.65;61.45;100928.67;230653;1193;138408;-74
2021/10/26 15:16:45;;;;;;;11.80;10.50;;;;;;;10.63;61.20;100927.58;230554;1196;138145;-76
2021/10/26 15:22:24;;;;;;;14.50;11.00;;;;;;;10.56;61.86;100934.96;230393;1195;138264;-77
2021/10/26 15:37:54;;;;;;;14.40;12.70;;;;;;;10.29;64.24;100949.19;230967;1193;139127;-65
2021/10/26 15:42:56;;;;;;;16.70;13.70;;;;;;;10.20;64.50;100944.70;230415;1193;138774;-65
2021/10/26 15:47:57;;;;;;;15.70;13.50;;;;;;;10.13;65.03;100948.45;230493;1193;138143;-69
2021/10/26 15:52:59;;;;;;;17.50;14.40;;;;;;;10.10;65.10;100950.83;230284;1193;138424;-67
2021/10/26 15:58:02;;;;;;;34.60;27.80;;;;;;;10.12;65.02;100947.38;230423;1195;209290;-68
2021/10/26 16:03:07;;;;;;;23.40;20.60;;;;;;;10.16;64.72;100953.98;230744;1193;139068;-76
2021/10/26 16:08:18;;;;;;;25.80;23.00;;;;;;;10.11;64.74;100955.50;231159;1193;138106;-75
2021/10/26 16:13:28;;;;;;;22.00;17.60;;;;;;;10.05;64.86;100945.98;230266;1196;138583;-76
2021/10/26 16:18:32;;;;;;;21.10;18.30;;;;;;;10.01;64.91;100945.09;231261;1195;143262;-79
2021/10/26 16:23:34;;;;;;;19.60;17.50;;;;;;;9.97;65.09;100949.52;231581;1193;139355;-77
2021/10/26 16:28:36;;;;;;;17.10;14.90;;;;;;;9.94;65.48;100953.34;231363;1193;139468;-75
2021/10/26 16:33:38;;;;;;;18.10;16.20;;;;;;;9.90;65.61;100958.77;230780;1193;139315;-76
2021/10/26 16:38:43;;;;;;;19.70;17.20;;;;;;;9.88;65.73;100958.40;230837;1195;139163;-76
2021/10/26 16:43:57;;;;;;;17.70;14.80;;;;;;;9.91;65.91;100966.05;230439;1193;139644;-77
2021/10/26 16:49:00;;;;;;;22.40;15.80;;;;;;;9.99;65.45;100969.54;230506;1195;139409;-79
2021/10/26 16:54:02;;;;;;;20.80;15.60;;;;;;;10.05;65.35;100970.80;230954;1193;138903;-79
2021/10/26 16:59:03;;;;;;;22.20;18.90;;;;;;;10.03;65.64;100962.90;230664;1195;138526;-78
2021/10/26 17:04:06;;;;;;;23.10;17.10;;;;;;;10.02;65.75;100961.58;230528;1194;139515;-79
2021/10/26 17:09:08;;;;;;;18.60;15.70;;;;;;;9.99;65.97;100963.42;231274;1193;138112;-74
2021/10/26 17:14:10;;;;;;;16.70;14.90;;;;;;;10.01;65.85;100966.05;230356;1195;138690;-79
2021/10/26 17:19:12;;;;;;;23.70;17.80;;;;;;;10.02;66.06;100969.30;231041;1193;138847;-82
2021/10/26 17:24:13;;;;;;;20.90;16.40;;;;;;;10.02;66.13;100973.39;230559;1196;139848;-79
2021/10/26 17:29:15;;;;;;;21.20;17.10;;;;;;;10.11;65.97;100975.60;230545;1187;140028;-78
2021/10/26 17:34:17;;;;;;;21.90;16.40;;;;;;;10.19;65.74;100980.54;230530;1190;139302;-77
2021/10/26 17:39:19;;;;;;;18.90;16.20;;;;;;;10.27;65.23;100983.57;230311;1195;139356;-75
2021/10/26 17:44:21;;;;;;;18.10;16.00;;;;;;;10.27;65.15;100982.42;230552;1193;139848;-77
2021/10/26 17:49:23;;;;;;;33.00;27.30;;;;;;;10.27;65.41;100982.10;230729;1193;139029;-77
2021/10/26 17:54:24;;;;;;;29.20;23.00;;;;;;;10.31;65.48;100987.95;230475;1193;139334;-77
2021/10/26 17:59:26;;;;;;;20.30;15.70;;;;;;;10.40;65.04;100988.70;230356;1195;138605;-76
2021/10/26 18:04:28;;;;;;;18.30;15.30;;;;;;;10.47;65.02;100986.98;230491;1193;138619;-76
2021/10/26 18:09:29;;;;;;;22.40;17.80;;;;;;;10.53;65.02;100992.45;230809;1195;139205;-76
2021/10/26 18:14:31;;;;;;;21.10;18.20;;;;;;;10.52;65.03;100988.10;230415;1195;138573;-76
2021/10/26 18:19:33;;;;;;;18.00;15.20;;;;;;;10.49;65.35;100987.02;230697;1195;139286;-75
2021/10/26 18:24:34;;;;;;;23.60;18.60;;;;;;;10.47;65.60;100988.42;230594;1195;138267;-77
2021/10/26 18:29:36;;;;;;;19.40;17.30;;;;;;;10.45;65.89;100991.07;230682;1195;139748;-77
2021/10/26 18:34:38;;;;;;;21.00;17.90;;;;;;;10.45;66.41;100993.85;230473;1193;139853;-75
2021/10/26 18:39:39;;;;;;;20.80;17.10;;;;;;;10.50;66.58;100996.80;230503;1196;139014;-75
2021/10/26 18:44:52;;;;;;;23.70;19.70;;;;;;;10.53;66.78;101002.49;230638;1193;138131;-76
2021/10/26 18:49:54;;;;;;;24.80;20.00;;;;;;;10.50;67.08;100997.77;230497;1193;139208;-76
2021/10/26 18:54:56;;;;;;;29.00;21.60;;;;;;;10.49;66.84;101002.48;230547;1193;138160;-74
2021/10/26 18:59:57;;;;;;;24.50;18.80;;;;;;;10.50;67.55;101008.25;230430;1193;140058;-76
2021/10/26 19:05:00;;;;;;;21.70;19.40;;;;;;;10.49;68.31;101016.08;230461;1196;139931;-75
2021/10/26 19:10:04;;;;;;;21.30;18.10;;;;;;;10.49;68.63;101013.27;230622;1196;138565;-76
2021/10/26 19:15:07;;;;;;;21.10;18.20;;;;;;;10.47;69.05;101018.56;230644;1193;138619;-76
2021/10/26 19:20:10;;;;;;;19.00;16.80;;;;;;;10.42;69.59;101019.33;230573;1196;139327;-75
2021/10/26 19:25:12;;;;;;;23.60;20.60;;;;;;;10.40;70.25;101024.83;230675;1193;138678;-75
2021/10/26 19:30:16;;;;;;;19.60;17.50;;;;;;;10.39;70.64;101029.11;230559;1193;138729;-74
2021/10/26 19:35:21;;;;;;;22.80;18.80;;;;;;;10.41;71.02;101036.67;230456;1193;138640;-77
2021/10/26 19:40:23;;;;;;;19.20;17.10;;;;;;;10.36;71.72;101042.93;230631;1195;138745;-75
2021/10/26 19:45:26;;;;;;;23.90;18.90;;;;;;;10.24;72.67;101046.66;230433;1193;139122;-77
2021/10/26 19:50:28;;;;;;;23.90;18.00;;;;;;;10.21;72.91;101044.74;230730;1190;138725;-75
2021/10/26 19:55:29;;;;;;;20.90;18.60;;;;;;;10.16;74.27;101046.69;230398;1193;138613;-76
2021/10/26 20:00:31;;;;;;;24.70;19.00;;;;;;;10.01;77.23;101058.98;230389;1193;138941;-75
2021/10/26 20:05:33;;;;;;;21.50;19.00;;;;;;;9.77;79.56;101071.84;230564;1193;139885;-74
2021/10/26 20:10:35;;;;;;;21.90;19.50;;;;;;;9.64;81.16;101079.27;230505;1193;139472;-75
2021/10/26 20:15:36;;;;;;;23.10;18.50;;;;;;;9.55;82.08;101079.47;230548;1194;139603;-75
2021/10/26 20:26:08;;;;;;;23.60;19.50;;;;;;;9.50;83.38;101078.46;232745;1193;137894;-75
2021/10/26 20:31:10;;;;;;;20.50;17.30;;;;;;;9.48;84.05;101076.70;235770;1195;137279;-75
2021/10/26 20:36:12;;;;;;;24.80;19.20;;;;;;;9.44;84.00;101077.95;231154;1193;138632;-75
2021/10/26 20:41:13;;;;;;;18.30;15.80;;;;;;;9.49;83.90;101076.27;230234;1195;138769;-73
2021/10/26 20:46:15;;;;;;;19.60;17.60;;;;;;;9.50;83.91;101073.58;230047;1195;138186;-75
2021/10/26 20:51:18;;;;;;;22.20;19.40;;;;;;;9.56;82.77;101069.58;230212;1197;139299;-74
2021/10/26 20:56:20;;;;;;;25.80;18.80;;;;;;;9.46;82.96;101076.52;230384;1195;138891;-73
2021/10/26 21:01:21;;;;;;;25.10;20.00;;;;;;;9.47;83.18;101085.79;230584;1196;139581;-74
2021/10/26 21:06:23;;;;;;;21.90;18.80;;;;;;;9.50;83.14;101088.41;230280;1194;139043;-73
2021/10/26 21:11:25;;;;;;;21.30;18.80;;;;;;;9.55;82.61;101081.59;230232;1195;138416;-75
2021/10/26 21:16:26;;;;;;;20.00;17.90;;;;;;;9.66;81.84;101086.02;230505;1195;139294;-75
2021/10/26 21:21:28;;;;;;;22.70;20.00;;;;;;;9.69;81.47;101091.89;230511;1194;140734;-75
2021/10/26 21:26:30;;;;;;;24.80;20.40;;;;;;;9.69;81.23;101090.80;230559;1194;137921;-75
2021/10/26 21:31:34;;;;;;;21.20;17.60;;;;;;;9.67;81.07;101095.26;230706;1196;138794;-74
2021/10/26 21:41:44;;;;;;;21.10;17.90;;;;;;;9.67;81.05;101090.98;230845;1193;139778;-76
2021/10/26 21:46:45;;;;;;;21.70;17.70;;;;;;;9.75;80.62;101088.91;230808;1193;138416;-75
2021/10/26 21:51:47;;;;;;;21.90;18.60;;;;;;;9.73;80.36;101087.48;230502;1197;138599;-75
2021/10/26 21:56:48;;;;;;;20.70;18.50;;;;;;;9.65;80.85;101089.05;230545;1193;139360;-76
2021/10/26 22:01:50;;;;;;;20.70;17.80;;;;;;;9.64;80.78;101086.13;230653;1193;139535;-76
2021/10/26 22:06:52;;;;;;;22.00;19.30;;;;;;;9.65;80.90;101090.49;230689;1187;138306;-73
2021/10/26 22:11:54;;;;;;;22.30;19.20;;;;;;;9.71;80.52;101089.05;230583;1196;138891;-74
2021/10/26 22:16:55;;;;;;;23.80;21.30;;;;;;;9.67;80.69;101095.57;230783;1193;139153;-74
2021/10/26 22:21:57;;;;;;;18.80;16.60;;;;;;;9.72;80.31;101098.15;230696;1193;137988;-75
2021/10/26 22:26:59;;;;;;;19.10;15.60;;;;;;;9.58;80.78;101101.94;230809;1193;139199;-74
2021/10/26 22:32:01;;;;;;;18.70;16.50;;;;;;;9.53;81.13;101100.61;230565;1195;138577;-74
2021/10/26 22:37:03;;;;;;;18.50;16.50;;;;;;;9.45;81.28;101103.40;230576;1193;138406;-76
2021/10/26 22:42:08;;;;;;;19.50;15.60;;;;;;;9.41;81.68;101101.98;230478;1193;138334;-74
2021/10/26 22:47:10;;;;;;;19.50;17.40;;;;;;;9.45;81.59;101112.91;230667;1193;139307;-75
2021/10/26 22:52:11;;;;;;;20.20;16.70;;;;;;;9.46;81.28;101114.54;230640;1196;138718;-74
2021/10/26 22:57:14;;;;;;;21.00;18.80;;;;;;;9.47;81.01;101119.77;230632;1196;138147;-72
2021/10/26 23:02:17;;;;;;;21.20;17.60;;;;;;;9.46;81.03;101124.02;230603;1193;138351;-73
2021/10/26 23:07:19;;;;;;;21.30;18.20;;;;;;;9.45;81.13;101117.06;230633;1193;139498;-74
2021/10/26 23:12:20;;;;;;;19.10;16.40;;;;;;;9.51;80.60;101114.99;230610;1193;139133;-75
2021/10/26 23:17:22;;;;;;;20.40;18.10;;;;;;;9.53;80.46;101121.13;230879;1196;138811;-74
2021/10/26 23:22:24;;;;;;;20.10;16.70;;;;;;;9.50;80.54;101122.02;230582;1177;138390;-74